ADDS METAR Data INFO
IDs: Format: Raw Decoded Include TAF

Data at: 2114 UTC 22 Oct 2017

KEKQ 222056Z AUTO 08007KT 060V130 10SM OVC060 24/15 A3014 RMK AO2 SLP223 T02390150 56014
KEKQ 221956Z AUTO 11008KT 10SM OVC055 24/15 A3015 RMK AO2 SLP229 T02440150
KEKQ 221856Z AUTO 13011G15KT 10SM BKN049 24/14 A3016 RMK AO2 SLP230 T02440144
KEKQ 221756Z AUTO 13011G18KT 10SM FEW047 24/14 A3018 RMK AO2 SLP236 T02440144 10244 20117 58021
KEKQ 221656Z AUTO 11006G17KT 10SM CLR 23/14 A3020 RMK AO2 SLP246 T02330139
KEKQ 221556Z AUTO VRB06KT 10SM CLR 22/13 A3024 RMK AO2 SLP260 T02220128
KEKQ 221456Z AUTO 10007KT 060V140 10SM CLR 20/12 A3025 RMK AO2 SLP263 T02000122 50002
KEKQ 221356Z AUTO VRB04KT 10SM CLR 18/11 A3025 RMK AO2 SLP266 T01780111 TSNO
KEKQ 221256Z AUTO VRB05KT 10SM CLR 16/11 A3025 RMK AO2 SLP266 T01560106
KEKQ 221156Z AUTO VRB06KT 10SM CLR 13/09 A3024 RMK AO2 SLP261 T01330094 10161 20100 53005
KEKQ 221056Z AUTO 05006KT 10SM CLR 14/10 A3023 RMK AO2 SLP259 T01440100
KEKQ 220956Z AUTO 12008KT 10SM CLR 16/10 A3022 RMK AO2 SLP251 T01560100
KEKQ 220856Z AUTO 12005KT 10SM CLR 14/09 A3023 RMK AO2 SLP252 T01390089 58003
KEKQ 220756Z AUTO VRB04KT 10SM CLR 11/09 A3023 RMK AO2 SLP254 T01110089
KEKQ 220656Z AUTO VRB05KT 10SM CLR 13/09 A3024 RMK AO2 SLP255 T01280089
KEKQ 220556Z AUTO 05006KT 10SM CLR 14/09 A3024 RMK AO2 SLP255 T01440094 10189 20083 58007
KEKQ 220456Z AUTO VRB06KT 10SM CLR 11/09 A3024 RMK AO2 SLP259 T01060089
KEKQ 220356Z AUTO VRB05KT 10SM CLR 08/07 A3026 RMK AO2 SLP270 T00830072 402560056
KEKQ 220256Z AUTO 00000KT 10SM CLR 12/09 A3026 RMK AO2 SLP268 T01170094 53004
KEKQ 220156Z AUTO 00000KT 10SM CLR 13/09 A3025 RMK AO2 SLP269 T01330089
KEKQ 220056Z AUTO 36008KT 270V130 10SM CLR 14/09 A3024 RMK AO2 SLP266 T01390089
KEKQ 212356Z AUTO 07006KT 10SM CLR 19/09 A3025 RMK AO2 SLP268 T01890089 10256 20156 53002
KEKQ 212256Z AUTO VRB03KT 10SM CLR 17/10 A3025 RMK AO2 SLP270 T01670100
KEKQ 212156Z AUTO 12007KT 050V140 10SM CLR 22/10 A3024 RMK AO2 SLP262 T02220100
KEKQ 212056Z AUTO 08006KT 10SM CLR 24/09 A3024 RMK AO2 SLP263 T02390094 56010
KEKQ 211956Z AUTO VRB05KT 10SM CLR 25/10 A3025 RMK AO2 SLP264 T02500100
KEKQ 211856Z AUTO 14007KT 10SM CLR 25/09 A3025 RMK AO2 SLP264 T02500089
KEKQ 211756Z AUTO VRB04KT 10SM CLR 24/09 A3027 RMK AO2 SLP270 T02440089 10244 20072 58014
KEKQ 211656Z AUTO VRB06G17KT 10SM CLR 23/09 A3029 RMK AO2 SLP279 T02330094
KEKQ 211556Z AUTO VRB04KT 10SM CLR 22/11 A3031 RMK AO2 SLP285 T02170106 TSNO
KEKQ 211456Z AUTO 06007KT 10SM CLR 19/12 A3031 RMK AO2 SLP289 T01890117 51012
KEKQ 211356Z AUTO 02008KT 10SM CLR 14/12 A3031 RMK AO2 SLP292 T01440122
KEKQ 211256Z AUTO 03007KT 10SM CLR 10/09 A3030 RMK AO2 SLP290 T01000089
KEKQ 211156Z AUTO VRB06KT 10SM CLR 07/07 A3028 RMK AO2 SLP282 T00720067 10094 20056 51016
KEKQ 211056Z AUTO 27006KT 10SM CLR 07/06 A3026 RMK AO2 SLP275 T00670061
KEKQ 210956Z AUTO 28003KT 10SM CLR 07/07 A3024 RMK AO2 SLP264 T00720067